Newport, Texas
Current Conditions -  °F | °C
As of 4:55 PM on Friday 28 Nov 2014 (Local Time) from K0F2 Reporting Station
Clear Clear  
Wind Chill: 66°   Ceiling: Unl
Heat Index: 66°   Visibility: 10mi
Dew Point: 47°   Wind: 13mph
Humidity: 50%   Direction: 170°S
Pressure: 29.97"   Gusts: 21mph
Location:  33.5529°N, 97.8448°W
Report Text: K0F2 282255Z AUTO 17011G18KT 10SM CLR 19/08 A2997 RMK AO2 T01890083
Loading
Personal Weather Stations






























Interactive Weather Map New forecast layout! Learn more

10-Day Weather Forecast

Advertisements
Track Severe Weather on mobile